Osakis, Minnesota
Current Conditions -  °F | °C
As of 12:08 PM on Friday 19 Dec 2014 (Local Time) from KAXN Reporting Station
Haze Haze  
Wind Chill: 18°   Ceiling: 300
Heat Index: 27°   Visibility: 1.5mi
Dew Point: 26°   Wind: 9mph
Humidity: 96%   Direction: 170°S
Pressure: 30.1"   Gusts: NA
Location:  45.87°N, 95.15°W
Report Text: KAXN 191808Z AUTO 17008KT 1 1/2SM BR OVC003 M03/M03 A3010 RMK AO2 T10281033
Loading
Personal Weather Stations






























Interactive Weather Map New forecast layout! Learn more

10-Day Weather Forecast

Advertisements
Track Severe Weather on mobile